<?xml version="1.0" encoding="UTF-8" standalone="no" ?>
<gpx xmlns="http://www.topografix.com/GPX/1/1" creator="MapSource 6.15.11" version="1.1" xmlns:xsi="http://www.w3.org/2001/XMLSchema-instance" xsi:schemaLocation="http://www.topografix.com/GPX/1/1 http://www.topografix.com/GPX/1/1/gpx.xsd">

  <metadata>
    <link href="http://www.garmin.com">
      <text>Garmin International</text>
    </link>
    <time>2014-04-12T13:11:20Z</time>
    <bounds maxlat="47.5775819" maxlon="10.7408101" minlat="47.5545788" minlon="10.6240849"/>
  </metadata>

  <wpt lat="47.5762081" lon="10.6242299">
    <time>2014-03-17T13:36:29Z</time>
    <name>Dreimäderlhaus am See</name>
    <cmt>Dreimaederlhaus Pfrontenerstrasse 43
87629 Füssen-Weissensee
Tel: 08362 - 91900
&lt;br&gt;&lt;img src="http://www.dreimaederlhaus.de/uploads/wanderbilder/dreimaederlhaus.jpg" height="150"&gt;</cmt>
    <desc>Dreimaederlhaus Pfrontenerstrasse 43
87629 Füssen-Weissensee
Tel: 08362 - 91900
&lt;br&gt;&lt;img src="http://www.dreimaederlhaus.de/uploads/wanderbilder/dreimaederlhaus.jpg" height="150"&gt;</desc>
    <link href="www.dreimaederlhaus.de/uploads/wanderbilder/dreimaederlhaus_neu.jpg"/>
    <sym>Lodging</sym>
    <extensions>
      <gpxx:WaypointExtension xmlns:gpxx="http://www.garmin.com/xmlschemas/GpxExtensions/v3">
        <gpxx:DisplayMode>SymbolAndName</gpxx:DisplayMode>
      </gpxx:WaypointExtension>
    </extensions>
  </wpt>

  <wpt lat="47.5573254" lon="10.7391787">
    <time>2014-04-12T12:49:24Z</time>
    <name>Kostenpflichtige Parkplatz Hohenschwangau (4,-)</name>
    <cmt>Carpark</cmt>
    <desc>Carpark</desc>
    <sym>Parking Area</sym>
    <extensions>
      <gpxx:WaypointExtension xmlns:gpxx="http://www.garmin.com/xmlschemas/GpxExtensions/v3">
        <gpxx:DisplayMode>SymbolAndName</gpxx:DisplayMode>
      </gpxx:WaypointExtension>
    </extensions>
  </wpt>

  <wpt lat="47.5545788" lon="10.7371616">
    <time>2014-04-12T12:47:36Z</time>
    <name>Museum der Bayerische Könige</name>
    <cmt>&lt;br&gt;&lt;img src="http://maps.dreimaederlhaus.de/uploads/images/ Bayrische_koenige_bild.jpg" height="200"&gt;</cmt>
    <desc>&lt;br&gt;&lt;img src="http://maps.dreimaederlhaus.de/uploads/images/ Bayrische_koenige_bild.jpg" height="200"&gt;</desc>
    <sym>Circle, Blue</sym>
    <extensions>
      <gpxx:WaypointExtension xmlns:gpxx="http://www.garmin.com/xmlschemas/GpxExtensions/v3">
        <gpxx:DisplayMode>SymbolAndName</gpxx:DisplayMode>
      </gpxx:WaypointExtension>
    </extensions>
  </wpt>

  <wpt lat="47.5619484" lon="10.7260362">
    <time>2014-04-12T12:46:58Z</time>
    <name>Schwansee Parkplatz Kostenlos</name>
    <cmt>Ucl</cmt>
    <desc>Ucl</desc>
    <sym>Parking Area</sym>
    <extensions>
      <gpxx:WaypointExtension xmlns:gpxx="http://www.garmin.com/xmlschemas/GpxExtensions/v3">
        <gpxx:DisplayMode>SymbolAndName</gpxx:DisplayMode>
      </gpxx:WaypointExtension>
    </extensions>
  </wpt>

  <trk>
    <name>Aktueller Track: 27 MRZ 2014 11:25</name>
    <extensions>
      <gpxx:TrackExtension xmlns:gpxx="http://www.garmin.com/xmlschemas/GpxExtensions/v3">
        <gpxx:DisplayColor>White</gpxx:DisplayColor>
      </gpxx:TrackExtension>
    </extensions>
    <trkseg>
      <trkpt lat="47.5762795" lon="10.6240849">
        <ele>823.5100000</ele>
        <time>2014-03-27T09:25:59Z</time>
      </trkpt>
      <trkpt lat="47.5763032" lon="10.6241074">
        <ele>819.6600000</ele>
        <time>2014-03-27T09:26:02Z</time>
      </trkpt>
      <trkpt lat="47.5766391" lon="10.6241317">
        <ele>817.7400000</ele>
        <time>2014-03-27T09:26:09Z</time>
      </trkpt>
      <trkpt lat="47.5767197" lon="10.6241733">
        <ele>817.7400000</ele>
        <time>2014-03-27T09:26:10Z</time>
      </trkpt>
      <trkpt lat="47.5768042" lon="10.6242494">
        <ele>816.7800000</ele>
        <time>2014-03-27T09:26:11Z</time>
      </trkpt>
      <trkpt lat="47.5768875" lon="10.6243640">
        <ele>816.3000000</ele>
        <time>2014-03-27T09:26:12Z</time>
      </trkpt>
      <trkpt lat="47.5769682" lon="10.6245260">
        <ele>815.3400000</ele>
        <time>2014-03-27T09:26:13Z</time>
      </trkpt>
      <trkpt lat="47.5770355" lon="10.6247006">
        <ele>814.8500000</ele>
        <time>2014-03-27T09:26:14Z</time>
      </trkpt>
      <trkpt lat="47.5770962" lon="10.6248926">
        <ele>814.3700000</ele>
        <time>2014-03-27T09:26:15Z</time>
      </trkpt>
      <trkpt lat="47.5771536" lon="10.6250926">
        <ele>814.3700000</ele>
        <time>2014-03-27T09:26:16Z</time>
      </trkpt>
      <trkpt lat="47.5773819" lon="10.6258831">
        <ele>811.4900000</ele>
        <time>2014-03-27T09:26:20Z</time>
      </trkpt>
      <trkpt lat="47.5775819" lon="10.6282019">
        <ele>811.0100000</ele>
        <time>2014-03-27T09:26:31Z</time>
      </trkpt>
      <trkpt lat="47.5771843" lon="10.6297089">
        <ele>812.9300000</ele>
        <time>2014-03-27T09:26:38Z</time>
      </trkpt>
      <trkpt lat="47.5762887" lon="10.6331275">
        <ele>813.4100000</ele>
        <time>2014-03-27T09:26:52Z</time>
      </trkpt>
      <trkpt lat="47.5761828" lon="10.6333617">
        <ele>813.8900000</ele>
        <time>2014-03-27T09:26:53Z</time>
      </trkpt>
      <trkpt lat="47.5760646" lon="10.6335856">
        <ele>814.3700000</ele>
        <time>2014-03-27T09:26:54Z</time>
      </trkpt>
      <trkpt lat="47.5754025" lon="10.6346886">
        <ele>816.7800000</ele>
        <time>2014-03-27T09:26:59Z</time>
      </trkpt>
      <trkpt lat="47.5748954" lon="10.6355002">
        <ele>819.6600000</ele>
        <time>2014-03-27T09:27:03Z</time>
      </trkpt>
      <trkpt lat="47.5742788" lon="10.6365104">
        <ele>823.0300000</ele>
        <time>2014-03-27T09:27:09Z</time>
      </trkpt>
      <trkpt lat="47.5737232" lon="10.6387259">
        <ele>823.9900000</ele>
        <time>2014-03-27T09:27:21Z</time>
      </trkpt>
      <trkpt lat="47.5737686" lon="10.6393749">
        <ele>820.6200000</ele>
        <time>2014-03-27T09:27:24Z</time>
      </trkpt>
      <trkpt lat="47.5738111" lon="10.6395909">
        <ele>819.6600000</ele>
        <time>2014-03-27T09:27:25Z</time>
      </trkpt>
      <trkpt lat="47.5738737" lon="10.6398021">
        <ele>798.0300000</ele>
        <time>2014-03-27T09:27:26Z</time>
      </trkpt>
      <trkpt lat="47.5739539" lon="10.6400083">
        <ele>797.5500000</ele>
        <time>2014-03-27T09:27:27Z</time>
      </trkpt>
      <trkpt lat="47.5740427" lon="10.6402107">
        <ele>796.1100000</ele>
        <time>2014-03-27T09:27:28Z</time>
      </trkpt>
      <trkpt lat="47.5741401" lon="10.6404098">
        <ele>795.6300000</ele>
        <time>2014-03-27T09:27:29Z</time>
      </trkpt>
      <trkpt lat="47.5747059" lon="10.6419987">
        <ele>792.2600000</ele>
        <time>2014-03-27T09:27:36Z</time>
      </trkpt>
      <trkpt lat="47.5748814" lon="10.6432416">
        <ele>791.3000000</ele>
        <time>2014-03-27T09:27:41Z</time>
      </trkpt>
      <trkpt lat="47.5748701" lon="10.6434857">
        <ele>791.3000000</ele>
        <time>2014-03-27T09:27:42Z</time>
      </trkpt>
      <trkpt lat="47.5748369" lon="10.6437262">
        <ele>791.3000000</ele>
        <time>2014-03-27T09:27:43Z</time>
      </trkpt>
      <trkpt lat="47.5747839" lon="10.6439562">
        <ele>791.3000000</ele>
        <time>2014-03-27T09:27:44Z</time>
      </trkpt>
      <trkpt lat="47.5747105" lon="10.6441762">
        <ele>791.7800000</ele>
        <time>2014-03-27T09:27:45Z</time>
      </trkpt>
      <trkpt lat="47.5746196" lon="10.6443818">
        <ele>791.7800000</ele>
        <time>2014-03-27T09:27:46Z</time>
      </trkpt>
      <trkpt lat="47.5745121" lon="10.6445673">
        <ele>791.7800000</ele>
        <time>2014-03-27T09:27:47Z</time>
      </trkpt>
      <trkpt lat="47.5743932" lon="10.6447360">
        <ele>791.7800000</ele>
        <time>2014-03-27T09:27:48Z</time>
      </trkpt>
      <trkpt lat="47.5742685" lon="10.6448931">
        <ele>791.7800000</ele>
        <time>2014-03-27T09:27:49Z</time>
      </trkpt>
      <trkpt lat="47.5728785" lon="10.6465973">
        <ele>790.8200000</ele>
        <time>2014-03-27T09:28:00Z</time>
      </trkpt>
      <trkpt lat="47.5727833" lon="10.6467719">
        <ele>790.8200000</ele>
        <time>2014-03-27T09:28:01Z</time>
      </trkpt>
      <trkpt lat="47.5727073" lon="10.6469629">
        <ele>790.8200000</ele>
        <time>2014-03-27T09:28:02Z</time>
      </trkpt>
      <trkpt lat="47.5726537" lon="10.6471687">
        <ele>790.8200000</ele>
        <time>2014-03-27T09:28:03Z</time>
      </trkpt>
      <trkpt lat="47.5726213" lon="10.6473879">
        <ele>790.8200000</ele>
        <time>2014-03-27T09:28:04Z</time>
      </trkpt>
      <trkpt lat="47.5726090" lon="10.6476108">
        <ele>790.8200000</ele>
        <time>2014-03-27T09:28:05Z</time>
      </trkpt>
      <trkpt lat="47.5726161" lon="10.6478322">
        <ele>790.8200000</ele>
        <time>2014-03-27T09:28:06Z</time>
      </trkpt>
      <trkpt lat="47.5726328" lon="10.6480550">
        <ele>790.8200000</ele>
        <time>2014-03-27T09:28:07Z</time>
      </trkpt>
      <trkpt lat="47.5729901" lon="10.6527839">
        <ele>790.8200000</ele>
        <time>2014-03-27T09:28:26Z</time>
      </trkpt>
      <trkpt lat="47.5733133" lon="10.6554962">
        <ele>791.7800000</ele>
        <time>2014-03-27T09:28:36Z</time>
      </trkpt>
      <trkpt lat="47.5734956" lon="10.6578158">
        <ele>795.6300000</ele>
        <time>2014-03-27T09:28:44Z</time>
      </trkpt>
      <trkpt lat="47.5736704" lon="10.6603805">
        <ele>798.9900000</ele>
        <time>2014-03-27T09:28:53Z</time>
      </trkpt>
      <trkpt lat="47.5739795" lon="10.6631830">
        <ele>796.5900000</ele>
        <time>2014-03-27T09:29:05Z</time>
      </trkpt>
      <trkpt lat="47.5739656" lon="10.6633125">
        <ele>795.6300000</ele>
        <time>2014-03-27T09:29:06Z</time>
      </trkpt>
      <trkpt lat="47.5739266" lon="10.6634210">
        <ele>795.6300000</ele>
        <time>2014-03-27T09:29:07Z</time>
      </trkpt>
      <trkpt lat="47.5738664" lon="10.6635054">
        <ele>795.6300000</ele>
        <time>2014-03-27T09:29:08Z</time>
      </trkpt>
      <trkpt lat="47.5737879" lon="10.6635741">
        <ele>795.6300000</ele>
        <time>2014-03-27T09:29:09Z</time>
      </trkpt>
      <trkpt lat="47.5736951" lon="10.6636373">
        <ele>795.6300000</ele>
        <time>2014-03-27T09:29:10Z</time>
      </trkpt>
      <trkpt lat="47.5735867" lon="10.6637013">
        <ele>795.6300000</ele>
        <time>2014-03-27T09:29:11Z</time>
      </trkpt>
      <trkpt lat="47.5717963" lon="10.6646428">
        <ele>794.1900000</ele>
        <time>2014-03-27T09:29:23Z</time>
      </trkpt>
      <trkpt lat="47.5704681" lon="10.6654434">
        <ele>791.3000000</ele>
        <time>2014-03-27T09:29:32Z</time>
      </trkpt>
      <trkpt lat="47.5699464" lon="10.6660069">
        <ele>789.3800000</ele>
        <time>2014-03-27T09:29:37Z</time>
      </trkpt>
      <trkpt lat="47.5698691" lon="10.6660658">
        <ele>788.4200000</ele>
        <time>2014-03-27T09:29:38Z</time>
      </trkpt>
      <trkpt lat="47.5698006" lon="10.6661132">
        <ele>788.9000000</ele>
        <time>2014-03-27T09:29:39Z</time>
      </trkpt>
      <trkpt lat="47.5697443" lon="10.6661726">
        <ele>788.9000000</ele>
        <time>2014-03-27T09:29:40Z</time>
      </trkpt>
      <trkpt lat="47.5697035" lon="10.6662555">
        <ele>788.9000000</ele>
        <time>2014-03-27T09:29:41Z</time>
      </trkpt>
      <trkpt lat="47.5696723" lon="10.6663569">
        <ele>788.9000000</ele>
        <time>2014-03-27T09:29:42Z</time>
      </trkpt>
      <trkpt lat="47.5696402" lon="10.6664682">
        <ele>788.9000000</ele>
        <time>2014-03-27T09:29:43Z</time>
      </trkpt>
      <trkpt lat="47.5695966" lon="10.6665815">
        <ele>788.9000000</ele>
        <time>2014-03-27T09:29:44Z</time>
      </trkpt>
      <trkpt lat="47.5695457" lon="10.6666967">
        <ele>788.9000000</ele>
        <time>2014-03-27T09:29:45Z</time>
      </trkpt>
      <trkpt lat="47.5690117" lon="10.6686595">
        <ele>789.3800000</ele>
        <time>2014-03-27T09:29:57Z</time>
      </trkpt>
      <trkpt lat="47.5687870" lon="10.6723082">
        <ele>790.8200000</ele>
        <time>2014-03-27T09:30:16Z</time>
      </trkpt>
      <trkpt lat="47.5682758" lon="10.6760757">
        <ele>791.3000000</ele>
        <time>2014-03-27T09:30:36Z</time>
      </trkpt>
      <trkpt lat="47.5682009" lon="10.6797174">
        <ele>791.7800000</ele>
        <time>2014-03-27T09:30:55Z</time>
      </trkpt>
      <trkpt lat="47.5681575" lon="10.6834831">
        <ele>793.7100000</ele>
        <time>2014-03-27T09:31:16Z</time>
      </trkpt>
      <trkpt lat="47.5683117" lon="10.6884681">
        <ele>795.1500000</ele>
        <time>2014-03-27T09:31:45Z</time>
      </trkpt>
      <trkpt lat="47.5679685" lon="10.6924988">
        <ele>796.5900000</ele>
        <time>2014-03-27T09:32:10Z</time>
      </trkpt>
      <trkpt lat="47.5678040" lon="10.6948952">
        <ele>797.5500000</ele>
        <time>2014-03-27T09:32:27Z</time>
      </trkpt>
      <trkpt lat="47.5678021" lon="10.6949933">
        <ele>797.5500000</ele>
        <time>2014-03-27T09:32:28Z</time>
      </trkpt>
      <trkpt lat="47.5678061" lon="10.6950785">
        <ele>797.5500000</ele>
        <time>2014-03-27T09:32:29Z</time>
      </trkpt>
      <trkpt lat="47.5678296" lon="10.6951438">
        <ele>797.5500000</ele>
        <time>2014-03-27T09:32:30Z</time>
      </trkpt>
      <trkpt lat="47.5678638" lon="10.6951794">
        <ele>797.5500000</ele>
        <time>2014-03-27T09:32:31Z</time>
      </trkpt>
      <trkpt lat="47.5679005" lon="10.6951906">
        <ele>797.5500000</ele>
        <time>2014-03-27T09:32:32Z</time>
      </trkpt>
      <trkpt lat="47.5679465" lon="10.6951872">
        <ele>797.5500000</ele>
        <time>2014-03-27T09:32:33Z</time>
      </trkpt>
      <trkpt lat="47.5680061" lon="10.6951835">
        <ele>798.0300000</ele>
        <time>2014-03-27T09:32:34Z</time>
      </trkpt>
      <trkpt lat="47.5680765" lon="10.6951914">
        <ele>798.0300000</ele>
        <time>2014-03-27T09:32:35Z</time>
      </trkpt>
      <trkpt lat="47.5681472" lon="10.6952180">
        <ele>798.0300000</ele>
        <time>2014-03-27T09:32:36Z</time>
      </trkpt>
      <trkpt lat="47.5682158" lon="10.6952660">
        <ele>798.0300000</ele>
        <time>2014-03-27T09:32:37Z</time>
      </trkpt>
      <trkpt lat="47.5682779" lon="10.6953318">
        <ele>798.0300000</ele>
        <time>2014-03-27T09:32:38Z</time>
      </trkpt>
      <trkpt lat="47.5683300" lon="10.6954123">
        <ele>798.0300000</ele>
        <time>2014-03-27T09:32:39Z</time>
      </trkpt>
      <trkpt lat="47.5683713" lon="10.6955138">
        <ele>798.0300000</ele>
        <time>2014-03-27T09:32:40Z</time>
      </trkpt>
      <trkpt lat="47.5684063" lon="10.6956352">
        <ele>798.0300000</ele>
        <time>2014-03-27T09:32:41Z</time>
      </trkpt>
      <trkpt lat="47.5684414" lon="10.6957674">
        <ele>798.0300000</ele>
        <time>2014-03-27T09:32:42Z</time>
      </trkpt>
      <trkpt lat="47.5685274" lon="10.6960439">
        <ele>798.0300000</ele>
        <time>2014-03-27T09:32:44Z</time>
      </trkpt>
      <trkpt lat="47.5685844" lon="10.6961771">
        <ele>798.0300000</ele>
        <time>2014-03-27T09:32:45Z</time>
      </trkpt>
      <trkpt lat="47.5691080" lon="10.6973974">
        <ele>798.0300000</ele>
        <time>2014-03-27T09:32:55Z</time>
      </trkpt>
      <trkpt lat="47.5691247" lon="10.6975060">
        <ele>798.0300000</ele>
        <time>2014-03-27T09:32:56Z</time>
      </trkpt>
      <trkpt lat="47.5691244" lon="10.6976178">
        <ele>798.0300000</ele>
        <time>2014-03-27T09:32:57Z</time>
      </trkpt>
      <trkpt lat="47.5691105" lon="10.6977233">
        <ele>798.5100000</ele>
        <time>2014-03-27T09:32:58Z</time>
      </trkpt>
      <trkpt lat="47.5690899" lon="10.6978223">
        <ele>798.0300000</ele>
        <time>2014-03-27T09:32:59Z</time>
      </trkpt>
      <trkpt lat="47.5689877" lon="10.6982638">
        <ele>799.4700000</ele>
        <time>2014-03-27T09:33:04Z</time>
      </trkpt>
      <trkpt lat="47.5689879" lon="10.6983432">
        <ele>799.4700000</ele>
        <time>2014-03-27T09:33:05Z</time>
      </trkpt>
      <trkpt lat="47.5690079" lon="10.6984199">
        <ele>799.4700000</ele>
        <time>2014-03-27T09:33:06Z</time>
      </trkpt>
      <trkpt lat="47.5690428" lon="10.6984950">
        <ele>799.4700000</ele>
        <time>2014-03-27T09:33:07Z</time>
      </trkpt>
      <trkpt lat="47.5690843" lon="10.6985675">
        <ele>799.4700000</ele>
        <time>2014-03-27T09:33:08Z</time>
      </trkpt>
      <trkpt lat="47.5694294" lon="10.6991864">
        <ele>799.4700000</ele>
        <time>2014-03-27T09:33:22Z</time>
      </trkpt>
      <trkpt lat="47.5695136" lon="10.6993136">
        <ele>799.4700000</ele>
        <time>2014-03-27T09:33:30Z</time>
      </trkpt>
      <trkpt lat="47.5695349" lon="10.6993613">
        <ele>799.4700000</ele>
        <time>2014-03-27T09:33:31Z</time>
      </trkpt>
      <trkpt lat="47.5695947" lon="10.6994898">
        <ele>799.4700000</ele>
        <time>2014-03-27T09:33:33Z</time>
      </trkpt>
      <trkpt lat="47.5696174" lon="10.6995890">
        <ele>799.4700000</ele>
        <time>2014-03-27T09:33:34Z</time>
      </trkpt>
      <trkpt lat="47.5696338" lon="10.6996878">
        <ele>799.4700000</ele>
        <time>2014-03-27T09:33:35Z</time>
      </trkpt>
      <trkpt lat="47.5696447" lon="10.6997872">
        <ele>799.4700000</ele>
        <time>2014-03-27T09:33:36Z</time>
      </trkpt>
      <trkpt lat="47.5696472" lon="10.6998835">
        <ele>799.4700000</ele>
        <time>2014-03-27T09:33:37Z</time>
      </trkpt>
      <trkpt lat="47.5696442" lon="10.6999779">
        <ele>799.4700000</ele>
        <time>2014-03-27T09:33:38Z</time>
      </trkpt>
      <trkpt lat="47.5696301" lon="10.7003533">
        <ele>799.4700000</ele>
        <time>2014-03-27T09:33:42Z</time>
      </trkpt>
      <trkpt lat="47.5696326" lon="10.7005440">
        <ele>799.4700000</ele>
        <time>2014-03-27T09:33:44Z</time>
      </trkpt>
      <trkpt lat="47.5696230" lon="10.7006382">
        <ele>799.4700000</ele>
        <time>2014-03-27T09:33:45Z</time>
      </trkpt>
      <trkpt lat="47.5696016" lon="10.7007258">
        <ele>799.4700000</ele>
        <time>2014-03-27T09:33:46Z</time>
      </trkpt>
      <trkpt lat="47.5695718" lon="10.7008118">
        <ele>799.4700000</ele>
        <time>2014-03-27T09:33:47Z</time>
      </trkpt>
      <trkpt lat="47.5695432" lon="10.7008936">
        <ele>799.4700000</ele>
        <time>2014-03-27T09:33:48Z</time>
      </trkpt>
      <trkpt lat="47.5692536" lon="10.7016205">
        <ele>799.9500000</ele>
        <time>2014-03-27T09:33:55Z</time>
      </trkpt>
      <trkpt lat="47.5690545" lon="10.7019498">
        <ele>799.9500000</ele>
        <time>2014-03-27T09:33:58Z</time>
      </trkpt>
      <trkpt lat="47.5690026" lon="10.7020703">
        <ele>800.4400000</ele>
        <time>2014-03-27T09:33:59Z</time>
      </trkpt>
      <trkpt lat="47.5689579" lon="10.7021900">
        <ele>800.4400000</ele>
        <time>2014-03-27T09:34:00Z</time>
      </trkpt>
      <trkpt lat="47.5688039" lon="10.7027273">
        <ele>798.9900000</ele>
        <time>2014-03-27T09:34:07Z</time>
      </trkpt>
      <trkpt lat="47.5687973" lon="10.7027463">
        <ele>798.9900000</ele>
        <time>2014-03-27T09:34:16Z</time>
      </trkpt>
      <trkpt lat="47.5687875" lon="10.7027682">
        <ele>798.9900000</ele>
        <time>2014-03-27T09:34:17Z</time>
      </trkpt>
      <trkpt lat="47.5685128" lon="10.7038268">
        <ele>797.5500000</ele>
        <time>2014-03-27T09:34:28Z</time>
      </trkpt>
      <trkpt lat="47.5682914" lon="10.7045871">
        <ele>794.1900000</ele>
        <time>2014-03-27T09:34:33Z</time>
      </trkpt>
      <trkpt lat="47.5677557" lon="10.7061482">
        <ele>790.8200000</ele>
        <time>2014-03-27T09:34:42Z</time>
      </trkpt>
      <trkpt lat="47.5664462" lon="10.7092335">
        <ele>790.8200000</ele>
        <time>2014-03-27T09:34:58Z</time>
      </trkpt>
      <trkpt lat="47.5661001" lon="10.7099842">
        <ele>791.7800000</ele>
        <time>2014-03-27T09:35:03Z</time>
      </trkpt>
      <trkpt lat="47.5658260" lon="10.7105775">
        <ele>793.2200000</ele>
        <time>2014-03-27T09:35:08Z</time>
      </trkpt>
      <trkpt lat="47.5652878" lon="10.7119267">
        <ele>796.5900000</ele>
        <time>2014-03-27T09:35:16Z</time>
      </trkpt>
      <trkpt lat="47.5651925" lon="10.7123274">
        <ele>797.5500000</ele>
        <time>2014-03-27T09:35:18Z</time>
      </trkpt>
      <trkpt lat="47.5651333" lon="10.7149113">
        <ele>798.9900000</ele>
        <time>2014-03-27T09:35:30Z</time>
      </trkpt>
      <trkpt lat="47.5652069" lon="10.7152895">
        <ele>798.0300000</ele>
        <time>2014-03-27T09:35:32Z</time>
      </trkpt>
      <trkpt lat="47.5653267" lon="10.7157430">
        <ele>796.5900000</ele>
        <time>2014-03-27T09:35:35Z</time>
      </trkpt>
      <trkpt lat="47.5653432" lon="10.7158788">
        <ele>796.5900000</ele>
        <time>2014-03-27T09:35:36Z</time>
      </trkpt>
      <trkpt lat="47.5653442" lon="10.7160168">
        <ele>796.5900000</ele>
        <time>2014-03-27T09:35:37Z</time>
      </trkpt>
      <trkpt lat="47.5655532" lon="10.7182814">
        <ele>796.1100000</ele>
        <time>2014-03-27T09:35:49Z</time>
      </trkpt>
      <trkpt lat="47.5659673" lon="10.7224681">
        <ele>796.1100000</ele>
        <time>2014-03-27T09:36:08Z</time>
      </trkpt>
      <trkpt lat="47.5660393" lon="10.7234692">
        <ele>794.6700000</ele>
        <time>2014-03-27T09:36:13Z</time>
      </trkpt>
      <trkpt lat="47.5660296" lon="10.7236539">
        <ele>794.6700000</ele>
        <time>2014-03-27T09:36:14Z</time>
      </trkpt>
      <trkpt lat="47.5660019" lon="10.7238347">
        <ele>794.6700000</ele>
        <time>2014-03-27T09:36:15Z</time>
      </trkpt>
      <trkpt lat="47.5659584" lon="10.7240062">
        <ele>794.6700000</ele>
        <time>2014-03-27T09:36:16Z</time>
      </trkpt>
      <trkpt lat="47.5659044" lon="10.7241684">
        <ele>794.6700000</ele>
        <time>2014-03-27T09:36:17Z</time>
      </trkpt>
      <trkpt lat="47.5653889" lon="10.7259220">
        <ele>793.7100000</ele>
        <time>2014-03-27T09:36:28Z</time>
      </trkpt>
      <trkpt lat="47.5653216" lon="10.7260732">
        <ele>793.7100000</ele>
        <time>2014-03-27T09:36:29Z</time>
      </trkpt>
      <trkpt lat="47.5652469" lon="10.7262165">
        <ele>793.2200000</ele>
        <time>2014-03-27T09:36:30Z</time>
      </trkpt>
      <trkpt lat="47.5651634" lon="10.7263486">
        <ele>793.2200000</ele>
        <time>2014-03-27T09:36:31Z</time>
      </trkpt>
      <trkpt lat="47.5650764" lon="10.7264729">
        <ele>793.2200000</ele>
        <time>2014-03-27T09:36:32Z</time>
      </trkpt>
      <trkpt lat="47.5641828" lon="10.7273685">
        <ele>792.2600000</ele>
        <time>2014-03-27T09:36:41Z</time>
      </trkpt>
      <trkpt lat="47.5640758" lon="10.7274256">
        <ele>792.2600000</ele>
        <time>2014-03-27T09:36:42Z</time>
      </trkpt>
      <trkpt lat="47.5639684" lon="10.7274657">
        <ele>792.2600000</ele>
        <time>2014-03-27T09:36:43Z</time>
      </trkpt>
      <trkpt lat="47.5638628" lon="10.7274895">
        <ele>792.2600000</ele>
        <time>2014-03-27T09:36:44Z</time>
      </trkpt>
      <trkpt lat="47.5637693" lon="10.7274939">
        <ele>791.7800000</ele>
        <time>2014-03-27T09:36:45Z</time>
      </trkpt>
      <trkpt lat="47.5636836" lon="10.7274728">
        <ele>791.7800000</ele>
        <time>2014-03-27T09:36:46Z</time>
      </trkpt>
      <trkpt lat="47.5636011" lon="10.7274249">
        <ele>791.7800000</ele>
        <time>2014-03-27T09:36:47Z</time>
      </trkpt>
      <trkpt lat="47.5635225" lon="10.7273583">
        <ele>790.8200000</ele>
        <time>2014-03-27T09:36:48Z</time>
      </trkpt>
      <trkpt lat="47.5634429" lon="10.7272837">
        <ele>790.3400000</ele>
        <time>2014-03-27T09:36:49Z</time>
      </trkpt>
      <trkpt lat="47.5629918" lon="10.7268734">
        <ele>790.8200000</ele>
        <time>2014-03-27T09:36:54Z</time>
      </trkpt>
      <trkpt lat="47.5628857" lon="10.7268079">
        <ele>790.8200000</ele>
        <time>2014-03-27T09:36:55Z</time>
      </trkpt>
      <trkpt lat="47.5623425" lon="10.7264267">
        <ele>789.8600000</ele>
        <time>2014-03-27T09:37:01Z</time>
      </trkpt>
      <trkpt lat="47.5622596" lon="10.7263891">
        <ele>790.3400000</ele>
        <time>2014-03-27T09:37:02Z</time>
      </trkpt>
      <trkpt lat="47.5620269" lon="10.7263073">
        <ele>790.3400000</ele>
        <time>2014-03-27T09:37:05Z</time>
      </trkpt>
      <trkpt lat="47.5619711" lon="10.7262645">
        <ele>789.3800000</ele>
        <time>2014-03-27T09:37:06Z</time>
      </trkpt>
      <trkpt lat="47.5619257" lon="10.7262232">
        <ele>789.3800000</ele>
        <time>2014-03-27T09:37:07Z</time>
      </trkpt>
      <trkpt lat="47.5618848" lon="10.7261968">
        <ele>788.4200000</ele>
        <time>2014-03-27T09:37:08Z</time>
      </trkpt>
      <trkpt lat="47.5618496" lon="10.7262146">
        <ele>788.4200000</ele>
        <time>2014-03-27T09:37:09Z</time>
      </trkpt>
      <trkpt lat="47.5618373" lon="10.7262549">
        <ele>788.4200000</ele>
        <time>2014-03-27T09:37:10Z</time>
      </trkpt>
      <trkpt lat="47.5618414" lon="10.7262870">
        <ele>788.4200000</ele>
        <time>2014-03-27T09:37:11Z</time>
      </trkpt>
      <trkpt lat="47.5618503" lon="10.7263033">
        <ele>788.4200000</ele>
        <time>2014-03-27T09:37:28Z</time>
      </trkpt>
      <trkpt lat="47.5618628" lon="10.7263228">
        <ele>788.4200000</ele>
        <time>2014-03-27T09:38:09Z</time>
      </trkpt>
      <trkpt lat="47.5618910" lon="10.7263286">
        <ele>788.4200000</ele>
        <time>2014-03-27T09:38:10Z</time>
      </trkpt>
      <trkpt lat="47.5619324" lon="10.7263290">
        <ele>788.4200000</ele>
        <time>2014-03-27T09:38:11Z</time>
      </trkpt>
      <trkpt lat="47.5620463" lon="10.7263199">
        <ele>790.3400000</ele>
        <time>2014-03-27T09:38:13Z</time>
      </trkpt>
      <trkpt lat="47.5621081" lon="10.7263124">
        <ele>790.3400000</ele>
        <time>2014-03-27T09:38:14Z</time>
      </trkpt>
      <trkpt lat="47.5621758" lon="10.7263174">
        <ele>790.3400000</ele>
        <time>2014-03-27T09:38:15Z</time>
      </trkpt>
      <trkpt lat="47.5622502" lon="10.7263405">
        <ele>791.3000000</ele>
        <time>2014-03-27T09:38:16Z</time>
      </trkpt>
      <trkpt lat="47.5623300" lon="10.7263839">
        <ele>791.3000000</ele>
        <time>2014-03-27T09:38:17Z</time>
      </trkpt>
      <trkpt lat="47.5624170" lon="10.7264431">
        <ele>791.7800000</ele>
        <time>2014-03-27T09:38:18Z</time>
      </trkpt>
      <trkpt lat="47.5625143" lon="10.7265127">
        <ele>791.7800000</ele>
        <time>2014-03-27T09:38:19Z</time>
      </trkpt>
      <trkpt lat="47.5635437" lon="10.7272792">
        <ele>790.8200000</ele>
        <time>2014-03-27T09:38:29Z</time>
      </trkpt>
      <trkpt lat="47.5635866" lon="10.7273229">
        <ele>790.8200000</ele>
        <time>2014-03-27T09:38:30Z</time>
      </trkpt>
      <trkpt lat="47.5636053" lon="10.7273726">
        <ele>790.8200000</ele>
        <time>2014-03-27T09:38:31Z</time>
      </trkpt>
      <trkpt lat="47.5636001" lon="10.7274203">
        <ele>790.8200000</ele>
        <time>2014-03-27T09:38:32Z</time>
      </trkpt>
      <trkpt lat="47.5635742" lon="10.7274717">
        <ele>790.8200000</ele>
        <time>2014-03-27T09:38:33Z</time>
      </trkpt>
      <trkpt lat="47.5635259" lon="10.7275090">
        <ele>790.8200000</ele>
        <time>2014-03-27T09:38:34Z</time>
      </trkpt>
      <trkpt lat="47.5634601" lon="10.7275360">
        <ele>791.7800000</ele>
        <time>2014-03-27T09:38:35Z</time>
      </trkpt>
      <trkpt lat="47.5631553" lon="10.7276700">
        <ele>791.7800000</ele>
        <time>2014-03-27T09:38:38Z</time>
      </trkpt>
      <trkpt lat="47.5630245" lon="10.7277556">
        <ele>791.7800000</ele>
        <time>2014-03-27T09:38:39Z</time>
      </trkpt>
      <trkpt lat="47.5626177" lon="10.7280840">
        <ele>791.7800000</ele>
        <time>2014-03-27T09:38:42Z</time>
      </trkpt>
      <trkpt lat="47.5611224" lon="10.7300911">
        <ele>791.7800000</ele>
        <time>2014-03-27T09:38:52Z</time>
      </trkpt>
      <trkpt lat="47.5592928" lon="10.7325544">
        <ele>792.7400000</ele>
        <time>2014-03-27T09:39:04Z</time>
      </trkpt>
      <trkpt lat="47.5589079" lon="10.7329791">
        <ele>792.2600000</ele>
        <time>2014-03-27T09:39:07Z</time>
      </trkpt>
      <trkpt lat="47.5588069" lon="10.7331454">
        <ele>792.7400000</ele>
        <time>2014-03-27T09:39:08Z</time>
      </trkpt>
      <trkpt lat="47.5587251" lon="10.7333294">
        <ele>792.2600000</ele>
        <time>2014-03-27T09:39:09Z</time>
      </trkpt>
      <trkpt lat="47.5586606" lon="10.7335283">
        <ele>792.2600000</ele>
        <time>2014-03-27T09:39:10Z</time>
      </trkpt>
      <trkpt lat="47.5586101" lon="10.7337411">
        <ele>792.2600000</ele>
        <time>2014-03-27T09:39:11Z</time>
      </trkpt>
      <trkpt lat="47.5585707" lon="10.7339565">
        <ele>792.2600000</ele>
        <time>2014-03-27T09:39:12Z</time>
      </trkpt>
      <trkpt lat="47.5585248" lon="10.7341706">
        <ele>792.2600000</ele>
        <time>2014-03-27T09:39:13Z</time>
      </trkpt>
      <trkpt lat="47.5584581" lon="10.7343601">
        <ele>793.2200000</ele>
        <time>2014-03-27T09:39:14Z</time>
      </trkpt>
      <trkpt lat="47.5583831" lon="10.7345166">
        <ele>793.7100000</ele>
        <time>2014-03-27T09:39:15Z</time>
      </trkpt>
      <trkpt lat="47.5582983" lon="10.7346587">
        <ele>793.7100000</ele>
        <time>2014-03-27T09:39:16Z</time>
      </trkpt>
      <trkpt lat="47.5581972" lon="10.7347809">
        <ele>794.1900000</ele>
        <time>2014-03-27T09:39:17Z</time>
      </trkpt>
      <trkpt lat="47.5580865" lon="10.7348879">
        <ele>794.1900000</ele>
        <time>2014-03-27T09:39:18Z</time>
      </trkpt>
      <trkpt lat="47.5575355" lon="10.7353712">
        <ele>795.6300000</ele>
        <time>2014-03-27T09:39:22Z</time>
      </trkpt>
      <trkpt lat="47.5574082" lon="10.7355337">
        <ele>795.6300000</ele>
        <time>2014-03-27T09:39:23Z</time>
      </trkpt>
      <trkpt lat="47.5572870" lon="10.7357156">
        <ele>795.6300000</ele>
        <time>2014-03-27T09:39:24Z</time>
      </trkpt>
      <trkpt lat="47.5568648" lon="10.7364472">
        <ele>795.6300000</ele>
        <time>2014-03-27T09:39:28Z</time>
      </trkpt>
      <trkpt lat="47.5567838" lon="10.7366404">
        <ele>795.6300000</ele>
        <time>2014-03-27T09:39:29Z</time>
      </trkpt>
      <trkpt lat="47.5567190" lon="10.7368512">
        <ele>795.6300000</ele>
        <time>2014-03-27T09:39:30Z</time>
      </trkpt>
      <trkpt lat="47.5566766" lon="10.7370614">
        <ele>795.6300000</ele>
        <time>2014-03-27T09:39:31Z</time>
      </trkpt>
      <trkpt lat="47.5566764" lon="10.7372620">
        <ele>795.6300000</ele>
        <time>2014-03-27T09:39:32Z</time>
      </trkpt>
      <trkpt lat="47.5567385" lon="10.7374548">
        <ele>795.6300000</ele>
        <time>2014-03-27T09:39:33Z</time>
      </trkpt>
      <trkpt lat="47.5567842" lon="10.7376488">
        <ele>795.6300000</ele>
        <time>2014-03-27T09:39:34Z</time>
      </trkpt>
      <trkpt lat="47.5569145" lon="10.7381864">
        <ele>795.6300000</ele>
        <time>2014-03-27T09:39:37Z</time>
      </trkpt>
      <trkpt lat="47.5568031" lon="10.7398392">
        <ele>796.1100000</ele>
        <time>2014-03-27T09:39:50Z</time>
      </trkpt>
      <trkpt lat="47.5567850" lon="10.7399317">
        <ele>796.1100000</ele>
        <time>2014-03-27T09:39:51Z</time>
      </trkpt>
      <trkpt lat="47.5567024" lon="10.7403199">
        <ele>800.4400000</ele>
        <time>2014-03-27T09:39:55Z</time>
      </trkpt>
      <trkpt lat="47.5566752" lon="10.7403989">
        <ele>800.4400000</ele>
        <time>2014-03-27T09:39:56Z</time>
      </trkpt>
      <trkpt lat="47.5565313" lon="10.7406912">
        <ele>802.3600000</ele>
        <time>2014-03-27T09:40:02Z</time>
      </trkpt>
      <trkpt lat="47.5564919" lon="10.7407242">
        <ele>802.3600000</ele>
        <time>2014-03-27T09:40:03Z</time>
      </trkpt>
      <trkpt lat="47.5564457" lon="10.7407586">
        <ele>802.3600000</ele>
        <time>2014-03-27T09:40:04Z</time>
      </trkpt>
      <trkpt lat="47.5563925" lon="10.7407857">
        <ele>802.3600000</ele>
        <time>2014-03-27T09:40:05Z</time>
      </trkpt>
      <trkpt lat="47.5563349" lon="10.7408048">
        <ele>804.2800000</ele>
        <time>2014-03-27T09:40:06Z</time>
      </trkpt>
      <trkpt lat="47.5562775" lon="10.7408101">
        <ele>804.2800000</ele>
        <time>2014-03-27T09:40:07Z</time>
      </trkpt>
      <trkpt lat="47.5562182" lon="10.7407987">
        <ele>805.7200000</ele>
        <time>2014-03-27T09:40:08Z</time>
      </trkpt>
      <trkpt lat="47.5561583" lon="10.7407768">
        <ele>806.2000000</ele>
        <time>2014-03-27T09:40:09Z</time>
      </trkpt>
      <trkpt lat="47.5560990" lon="10.7407421">
        <ele>806.6800000</ele>
        <time>2014-03-27T09:40:10Z</time>
      </trkpt>
      <trkpt lat="47.5560439" lon="10.7406938">
        <ele>807.1600000</ele>
        <time>2014-03-27T09:40:11Z</time>
      </trkpt>
      <trkpt lat="47.5559898" lon="10.7406400">
        <ele>808.1300000</ele>
        <time>2014-03-27T09:40:12Z</time>
      </trkpt>
      <trkpt lat="47.5559381" lon="10.7405794">
        <ele>808.1300000</ele>
        <time>2014-03-27T09:40:13Z</time>
      </trkpt>
      <trkpt lat="47.5558869" lon="10.7405177">
        <ele>808.6100000</ele>
        <time>2014-03-27T09:40:14Z</time>
      </trkpt>
      <trkpt lat="47.5558383" lon="10.7404507">
        <ele>809.0900000</ele>
        <time>2014-03-27T09:40:15Z</time>
      </trkpt>
      <trkpt lat="47.5555843" lon="10.7400732">
        <ele>811.4900000</ele>
        <time>2014-03-27T09:40:20Z</time>
      </trkpt>
      <trkpt lat="47.5552716" lon="10.7396260">
        <ele>812.9300000</ele>
        <time>2014-03-27T09:40:31Z</time>
      </trkpt>
      <trkpt lat="47.5552716" lon="10.7396260">
        <ele>812.9300000</ele>
        <time>2014-03-27T09:40:35Z</time>
      </trkpt>
      <trkpt lat="47.5552569" lon="10.7396064">
        <ele>812.9300000</ele>
        <time>2014-03-27T09:40:36Z</time>
      </trkpt>
      <trkpt lat="47.5552316" lon="10.7395770">
        <ele>812.9300000</ele>
        <time>2014-03-27T09:40:37Z</time>
      </trkpt>
      <trkpt lat="47.5551969" lon="10.7395480">
        <ele>812.9300000</ele>
        <time>2014-03-27T09:40:38Z</time>
      </trkpt>
      <trkpt lat="47.5551559" lon="10.7395158">
        <ele>813.8900000</ele>
        <time>2014-03-27T09:40:39Z</time>
      </trkpt>
      <trkpt lat="47.5551149" lon="10.7394749">
        <ele>813.8900000</ele>
        <time>2014-03-27T09:40:40Z</time>
      </trkpt>
      <trkpt lat="47.5550766" lon="10.7394232">
        <ele>813.8900000</ele>
        <time>2014-03-27T09:40:41Z</time>
      </trkpt>
      <trkpt lat="47.5550444" lon="10.7393568">
        <ele>813.8900000</ele>
        <time>2014-03-27T09:40:42Z</time>
      </trkpt>
      <trkpt lat="47.5550182" lon="10.7392788">
        <ele>813.8900000</ele>
        <time>2014-03-27T09:40:43Z</time>
      </trkpt>
      <trkpt lat="47.5549983" lon="10.7391972">
        <ele>813.8900000</ele>
        <time>2014-03-27T09:40:44Z</time>
      </trkpt>
      <trkpt lat="47.5549882" lon="10.7391262">
        <ele>814.8500000</ele>
        <time>2014-03-27T09:40:45Z</time>
      </trkpt>
      <trkpt lat="47.5549800" lon="10.7390706">
        <ele>814.8500000</ele>
        <time>2014-03-27T09:40:46Z</time>
      </trkpt>
      <trkpt lat="47.5549687" lon="10.7390308">
        <ele>814.8500000</ele>
        <time>2014-03-27T09:40:47Z</time>
      </trkpt>
      <trkpt lat="47.5549545" lon="10.7390057">
        <ele>815.8200000</ele>
        <time>2014-03-27T09:40:48Z</time>
      </trkpt>
      <trkpt lat="47.5549439" lon="10.7389906">
        <ele>815.8200000</ele>
        <time>2014-03-27T09:40:49Z</time>
      </trkpt>
      <trkpt lat="47.5549597" lon="10.7390293">
        <ele>816.3000000</ele>
        <time>2014-03-27T09:40:54Z</time>
      </trkpt>
      <trkpt lat="47.5549674" lon="10.7390391">
        <ele>816.3000000</ele>
        <time>2014-03-27T09:40:58Z</time>
      </trkpt>
    </trkseg>
  </trk>

</gpx>
